Strona główna
METAR-TAF:

METAR-TAF

Lotnisko :

Port lotniczy Logroño-Agoncillo

Logroño, Hiszpania

Szerokość geograficzna: 42-27N, Długość geograficzna: 002-20W, wysokość: 353 m

Aktualna obserwacja pogody

Raport powstał 41 minut temu, godzina 19:00 UTC
Wiatr 7 kt od zachód
Temperatura 9°C
Wilgotność 93%
Ciśnienie 1025 hPa
Widzialność 10 km lub więcej
Przerywane chmury na wysokości 3000 ft

METAR: LELO 081900Z 28007KT 9999 BKN030 09/08 Q1025

czas: 20:41 (19:41 UTC)

Prognoza

Raport powstał 2 godziny i 41 minut temu, godzina 17:00 UTC
Prognoza ważna od 08 godzina 18 UTC do 09 godzina 03 UTC
Wiatr 8 kt od zachód
Widzialność 10 km lub więcej
Rozproszone chmury na wysokości 2000 ft

TAF: LELO 081700Z 0818/0903 27008KT 9999 SCT020

Obserwacja i prognoza pogody dla ponad 4000 lotnisk (raport METAR i TAF).

Dostępne stacje oznaczono żółtymi i czerwonymi punktami na mapie.

Najedź kursorem aby zobaczyć nazwę stacji.

Kliknij aby zobaczyć obserwacje i prognozy pogody.

Aby zmienić mapę: kliknij na zielony przycisk z czarnym krzyżykiem, aby powiększyć; na zielony przycisk z myślnikiem, aby pomniejszyć; na zielone strzałki, aby przejść do map sąsiednich.


METAR-TAF: